Time;durP1;ratioP1;P1;durP2;ratioP2;P2;SDS_P1;SDS_P2;PMS_P1;PMS_P2;Temp;Humidity;BMP_temperature;BMP_pressure;BME280_temperature;BME280_humidity;BME280_pressure;Samples;Min_cycle;Max_cycle;Signal;HPM_P1;HPM_P2
2021/07/02 00:02:07;;;;;;;68.70;39.83;;;;;;;18.27;95.61;94571.09;5066616;28;20052;-72
2021/07/02 00:04:33;;;;;;;74.20;40.80;;;;;;;18.15;95.00;94580.22;5066011;28;20516;-73
2021/07/02 00:07:00;;;;;;;64.63;42.15;;;;;;;18.05;95.32;94583.00;5067105;28;20037;-72
2021/07/02 00:09:27;;;;;;;63.72;39.90;;;;;;;17.94;97.17;94581.56;5066817;28;20048;-72
2021/07/02 00:11:54;;;;;;;58.05;37.55;;;;;;;17.87;97.41;94573.22;5066035;28;20055;-72
2021/07/02 00:14:21;;;;;;;59.60;38.15;;;;;;;17.94;97.93;94579.72;5066505;28;20036;-71
2021/07/02 00:16:48;;;;;;;76.47;41.95;;;;;;;17.82;98.19;94565.34;5064848;28;20040;-72
2021/07/02 00:19:15;;;;;;;78.07;42.22;;;;;;;17.80;98.90;94581.44;5065939;28;20049;-72
2021/07/02 00:21:42;;;;;;;68.63;39.05;;;;;;;17.88;98.14;94585.31;5066069;28;20047;-71
2021/07/02 00:24:09;;;;;;;61.30;40.08;;;;;;;17.93;97.29;94583.44;5065984;28;20399;-71
2021/07/02 00:26:36;;;;;;;62.60;36.63;;;;;;;18.01;97.59;94592.53;5065922;28;20033;-71
2021/07/02 00:29:04;;;;;;;56.28;35.40;;;;;;;18.06;97.32;94603.03;5067110;28;20044;-72
2021/07/02 00:31:30;;;;;;;66.57;35.00;;;;;;;17.80;99.24;94609.63;5066487;28;20047;-71
2021/07/02 00:33:57;;;;;;;60.30;33.83;;;;;;;17.50;100.00;94595.72;5065755;28;20040;-71
2021/07/02 00:36:24;;;;;;;64.22;38.75;;;;;;;17.29;100.00;94593.31;5065594;28;20040;-71
2021/07/02 00:38:51;;;;;;;61.65;40.47;;;;;;;17.34;100.00;94603.81;5067014;28;20502;-72
2021/07/02 00:41:19;;;;;;;65.78;37.28;;;;;;;17.13;100.00;94607.69;5064527;28;20044;-72
2021/07/02 00:43:49;;;;;;;41.97;25.80;;;;;;;17.05;100.00;94611.72;5064916;28;20090;-72
2021/07/02 00:46:16;;;;;;;28.88;18.40;;;;;;;17.03;100.00;94620.91;5064268;28;20047;-72
2021/07/02 00:48:45;;;;;;;29.35;15.25;;;;;;;17.00;100.00;94630.16;5065895;28;20039;-72
2021/07/02 00:51:12;;;;;;;27.00;14.07;;;;;;;17.12;100.00;94616.63;5064361;28;20105;-71
2021/07/02 00:53:41;;;;;;;33.75;15.52;;;;;;;17.23;100.00;94623.38;5064289;28;20040;-71
2021/07/02 00:56:14;;;;;;;29.45;15.45;;;;;;;17.27;100.00;94619.13;5066272;28;20045;-71
2021/07/02 00:58:41;;;;;;;25.60;17.08;;;;;;;17.20;100.00;94608.16;5064278;28;20051;-71
2021/07/02 01:01:14;;;;;;;32.67;17.35;;;;;;;17.22;100.00;94611.28;5064180;28;20048;-71
2021/07/02 01:03:47;;;;;;;28.20;16.73;;;;;;;17.22;100.00;94619.19;5064151;28;20044;-71
2021/07/02 01:06:16;;;;;;;29.55;18.27;;;;;;;17.00;100.00;94594.09;5067051;28;20099;-72
2021/07/02 01:08:44;;;;;;;29.77;18.33;;;;;;;17.09;100.00;94617.19;5065290;28;20044;-72
2021/07/02 01:11:12;;;;;;;50.78;19.25;;;;;;;17.06;100.00;94617.75;5065287;28;20057;-72
2021/07/02 01:13:39;;;;;;;27.42;16.88;;;;;;;17.12;100.00;94606.09;5064253;28;20778;-72
2021/07/02 01:16:06;;;;;;;31.77;16.10;;;;;;;17.15;100.00;94610.81;5063855;28;20045;-71
2021/07/02 01:18:33;;;;;;;28.10;15.52;;;;;;;17.25;100.00;94610.75;5065249;28;20044;-71
2021/07/02 01:21:01;;;;;;;25.13;14.93;;;;;;;17.13;100.00;94610.31;5065690;28;20036;-71
2021/07/02 01:23:31;;;;;;;23.58;15.35;;;;;;;17.10;100.00;94595.84;5066371;28;20127;-73
2021/07/02 01:25:59;;;;;;;30.95;16.50;;;;;;;17.27;100.00;94607.81;5063995;28;20128;-73
2021/07/02 01:28:27;;;;;;;25.63;14.13;;;;;;;17.12;100.00;94600.84;5066564;28;20059;-72
2021/07/02 01:30:54;;;;;;;33.97;15.93;;;;;;;17.22;100.00;94621.03;5068009;28;20040;-72
2021/07/02 01:33:21;;;;;;;28.33;15.07;;;;;;;17.25;100.00;94605.47;5067879;28;20776;-72
2021/07/02 01:35:49;;;;;;;35.65;14.18;;;;;;;17.33;100.00;94611.97;5069257;28;20071;-72
2021/07/02 01:38:18;;;;;;;23.77;14.35;;;;;;;17.32;100.00;94616.47;5069266;28;20066;-72
2021/07/02 01:40:46;;;;;;;34.03;14.77;;;;;;;17.20;100.00;94619.44;5069314;28;20036;-72
2021/07/02 01:43:14;;;;;;;45.05;15.65;;;;;;;17.15;100.00;94621.34;5067746;28;20123;-73
2021/07/02 01:45:41;;;;;;;36.35;14.05;;;;;;;17.07;100.00;94614.84;5069064;28;20041;-71
2021/07/02 01:48:09;;;;;;;29.98;14.02;;;;;;;16.99;100.00;94608.31;5067969;28;20051;-72
2021/07/02 01:50:37;;;;;;;32.17;14.05;;;;;;;17.11;100.00;94612.44;5067748;28;20091;-72
2021/07/02 01:53:08;;;;;;;27.30;14.38;;;;;;;17.11;100.00;94605.31;5069369;28;20064;-72
2021/07/02 01:55:37;;;;;;;37.22;13.93;;;;;;;17.07;100.00;94608.78;5067511;28;20045;-72
2021/07/02 01:58:05;;;;;;;29.98;13.55;;;;;;;17.08;100.00;94610.34;5069045;28;20048;-72
2021/07/02 02:00:52;;;;;;;31.13;14.57;;;;;;;17.17;100.00;94616.59;5068423;28;20055;-73
2021/07/02 02:03:21;;;;;;;29.27;13.52;;;;;;;17.10;100.00;94602.97;5067742;28;20056;-72
2021/07/02 02:05:50;;;;;;;45.13;14.70;;;;;;;17.22;100.00;94610.50;5068975;28;20044;-72
2021/07/02 02:08:18;;;;;;;30.00;13.55;;;;;;;17.29;100.00;94601.22;5067683;28;20847;-72
2021/07/02 02:10:47;;;;;;;36.10;13.50;;;;;;;17.32;100.00;94605.94;5066940;28;20600;-72
2021/07/02 02:13:15;;;;;;;33.97;13.98;;;;;;;17.25;100.00;94613.38;5067419;28;20565;-72
2021/07/02 02:15:46;;;;;;;38.25;14.50;;;;;;;17.16;100.00;94591.31;5066722;28;20051;-72
2021/07/02 02:18:15;;;;;;;31.13;15.05;;;;;;;17.15;100.00;94595.81;5068145;28;20060;-72
2021/07/02 02:20:45;;;;;;;35.58;17.30;;;;;;;17.24;100.00;94608.38;5067142;28;20048;-72
2021/07/02 02:23:13;;;;;;;30.95;15.65;;;;;;;17.13;100.00;94603.19;5067758;28;20059;-72
2021/07/02 02:25:41;;;;;;;32.45;14.73;;;;;;;17.19;100.00;94603.94;5067184;28;20041;-72
2021/07/02 02:28:07;;;;;;;33.10;15.32;;;;;;;17.15;100.00;94600.28;5068541;28;20033;-72
2021/07/02 02:30:36;;;;;;;22.88;13.57;;;;;;;17.13;100.00;94605.06;5068114;28;20032;-72
2021/07/02 02:33:05;;;;;;;37.13;14.82;;;;;;;17.02;100.00;94588.56;5067025;28;20036;-72
2021/07/02 02:35:33;;;;;;;29.05;13.13;;;;;;;17.09;100.00;94606.69;5067024;28;20060;-72
2021/07/02 02:38:01;;;;;;;31.52;14.43;;;;;;;17.14;100.00;94599.53;5067853;28;20134;-72
2021/07/02 02:40:32;;;;;;;21.55;14.20;;;;;;;17.19;100.00;94601.31;5066222;28;20048;-72
2021/07/02 02:42:59;;;;;;;29.35;15.00;;;;;;;17.20;100.00;94605.50;5066769;28;20055;-72
2021/07/02 02:45:27;;;;;;;35.03;15.63;;;;;;;17.22;100.00;94611.28;5067840;28;20036;-72
2021/07/02 02:47:56;;;;;;;33.80;15.15;;;;;;;17.21;100.00;94609.69;5068580;28;20116;-72
2021/07/02 02:50:24;;;;;;;28.88;12.57;;;;;;;17.17;100.00;94608.69;5066543;28;20465;-71
2021/07/02 02:52:51;;;;;;;28.23;13.43;;;;;;;17.29;100.00;94609.09;5067857;28;20094;-72
2021/07/02 02:55:18;;;;;;;33.22;15.02;;;;;;;17.28;100.00;94610.16;5067797;28;20044;-72
2021/07/02 02:57:45;;;;;;;28.15;13.15;;;;;;;17.37;100.00;94624.28;5067808;28;20051;-71
2021/07/02 03:00:13;;;;;;;31.15;14.27;;;;;;;17.37;100.00;94613.75;5066408;28;20044;-72
2021/07/02 03:02:41;;;;;;;31.75;13.07;;;;;;;17.42;100.00;94622.69;5066569;28;20048;-72
2021/07/02 03:05:28;;;;;;;27.33;13.75;;;;;;;17.41;100.00;94619.25;5069209;28;20072;-71
2021/07/02 03:07:56;;;;;;;29.73;14.05;;;;;;;17.47;100.00;94622.63;5067616;28;20124;-72
2021/07/02 03:10:32;;;;;;;29.15;14.20;;;;;;;17.41;100.00;94613.19;5069177;28;20032;-71
2021/07/02 03:12:59;;;;;;;22.58;13.18;;;;;;;17.56;100.00;94616.47;5088123;28;20738;-71
2021/07/02 03:15:27;;;;;;;26.13;13.77;;;;;;;17.57;100.00;94617.25;5068401;28;20082;-72
2021/07/02 03:17:54;;;;;;;28.77;12.77;;;;;;;17.54;100.00;94615.19;5085471;28;20454;-72
2021/07/02 03:20:22;;;;;;;30.40;12.93;;;;;;;17.43;100.00;94603.19;5090846;28;20044;-72
2021/07/02 03:22:49;;;;;;;25.90;12.48;;;;;;;17.37;100.00;94607.72;5069316;28;20063;-71
2021/07/02 03:25:17;;;;;;;21.83;11.75;;;;;;;17.38;100.00;94619.81;5069325;28;20044;-72
2021/07/02 03:27:44;;;;;;;18.80;10.18;;;;;;;17.41;100.00;94631.63;5068755;28;20052;-72
2021/07/02 03:30:13;;;;;;;15.27;8.77;;;;;;;17.30;99.63;94633.56;5069022;28;20497;-72
2021/07/02 03:32:41;;;;;;;19.70;8.82;;;;;;;17.34;100.00;94635.38;5087872;28;20130;-72
2021/07/02 03:35:09;;;;;;;15.50;7.43;;;;;;;17.24;98.93;94634.69;5103119;28;20048;-72
2021/07/02 03:37:38;;;;;;;14.80;7.30;;;;;;;17.15;99.75;94634.50;5068504;28;20036;-72
2021/07/02 03:40:09;;;;;;;12.02;6.75;;;;;;;17.12;100.00;94629.78;5087557;28;20497;-71
2021/07/02 03:42:38;;;;;;;12.30;7.43;;;;;;;17.13;100.00;94634.00;5069010;28;20055;-72
2021/07/02 03:45:08;;;;;;;12.05;6.93;;;;;;;17.15;100.00;94632.66;5068944;28;20139;-71
2021/07/02 03:47:36;;;;;;;14.13;7.53;;;;;;;17.08;100.00;94623.50;5087241;28;20052;-72
2021/07/02 03:50:06;;;;;;;18.90;8.63;;;;;;;17.07;100.00;94629.81;5067895;28;20513;-71
2021/07/02 03:52:34;;;;;;;19.17;7.28;;;;;;;17.16;99.96;94638.69;5085451;28;20123;-71
2021/07/02 03:55:03;;;;;;;11.85;6.47;;;;;;;17.06;100.00;94649.31;5089795;28;20040;-71
2021/07/02 03:57:30;;;;;;;15.10;6.88;;;;;;;16.96;99.84;94635.19;5086670;28;20700;-71
2021/07/02 03:59:56;;;;;;;8.52;5.82;;;;;;;16.85;100.00;94638.94;5068558;28;20036;-72
2021/07/02 04:02:23;;;;;;;10.38;5.93;;;;;;;16.75;100.00;94639.78;5086643;28;20044;-71
2021/07/02 04:04:50;;;;;;;10.65;6.47;;;;;;;16.79;100.00;94646.06;5088067;28;20040;-71
2021/07/02 04:07:17;;;;;;;13.90;6.13;;;;;;;16.68;100.00;94638.53;5086691;28;20039;-72
2021/07/02 04:09:44;;;;;;;6.43;5.50;;;;;;;16.55;100.00;94624.94;5086989;28;20054;-71
2021/07/02 04:12:12;;;;;;;17.67;7.15;;;;;;;16.57;100.00;94649.09;5086465;28;20052;-72
2021/07/02 04:14:40;;;;;;;16.20;6.93;;;;;;;16.52;100.00;94641.25;5088241;28;20497;-72
2021/07/02 04:17:07;;;;;;;7.68;5.85;;;;;;;16.57;100.00;94643.06;5084320;28;20509;-71
2021/07/02 04:19:35;;;;;;;9.55;6.82;;;;;;;16.59;100.00;94646.97;5086186;28;20065;-72
2021/07/02 04:22:06;;;;;;;12.50;7.05;;;;;;;16.68;100.00;94656.94;5086132;28;20036;-72
2021/07/02 04:24:34;;;;;;;14.35;8.18;;;;;;;16.76;100.00;94651.06;5086097;28;20070;-71
2021/07/02 04:27:12;;;;;;;18.25;8.50;;;;;;;16.79;100.00;94658.44;5085829;28;20048;-71
2021/07/02 04:29:39;;;;;;;14.07;7.25;;;;;;;16.90;100.00;94667.84;5085988;28;20036;-72
2021/07/02 04:32:06;;;;;;;10.38;7.38;;;;;;;16.86;100.00;94669.47;5085182;28;20043;-71
2021/07/02 04:34:33;;;;;;;12.80;7.47;;;;;;;16.79;100.00;94667.09;5085772;28;20035;-71
2021/07/02 04:37:00;;;;;;;11.25;8.02;;;;;;;16.88;100.00;94664.69;5084848;28;20044;-71
2021/07/02 04:39:31;;;;;;;14.93;8.77;;;;;;;17.09;100.00;94685.63;5084305;28;20130;-71
2021/07/02 04:41:58;;;;;;;16.58;8.13;;;;;;;17.17;100.00;94691.03;5085141;28;20067;-72
2021/07/02 04:44:25;;;;;;;12.27;7.93;;;;;;;17.21;100.00;94691.28;5084530;28;20055;-72
2021/07/02 04:46:51;;;;;;;11.30;7.55;;;;;;;17.27;100.00;94692.81;5083919;28;20634;-71
2021/07/02 04:49:18;;;;;;;11.07;8.68;;;;;;;17.44;100.00;94702.16;5084666;28;20048;-72
2021/07/02 04:51:47;;;;;;;13.25;8.60;;;;;;;17.47;100.00;94696.34;5085440;28;20051;-72
2021/07/02 04:54:14;;;;;;;10.82;7.70;;;;;;;17.52;100.00;94696.28;5086299;28;20048;-72
2021/07/02 04:56:46;;;;;;;13.13;8.45;;;;;;;17.58;100.00;94697.81;5086145;28;20402;-71
2021/07/02 04:59:15;;;;;;;16.05;9.40;;;;;;;17.60;100.00;94711.50;5086810;28;20032;-72
2021/07/02 05:01:42;;;;;;;14.32;9.82;;;;;;;17.55;100.00;94701.00;5085645;28;20047;-73
2021/07/02 05:04:10;;;;;;;12.98;10.75;;;;;;;17.55;100.00;94693.09;5085180;28;20032;-71
2021/07/02 05:06:40;;;;;;;12.20;10.93;;;;;;;17.81;100.00;94706.00;5086670;28;20044;-71
2021/07/02 05:09:07;;;;;;;12.98;10.88;;;;;;;17.83;100.00;94703.91;5085984;28;20796;-72
2021/07/02 05:11:34;;;;;;;14.10;10.80;;;;;;;17.88;100.00;94712.56;5083126;28;20056;-71
2021/07/02 05:14:03;;;;;;;13.38;11.80;;;;;;;17.85;100.00;94701.78;5084475;28;20506;-72
2021/07/02 05:16:31;;;;;;;17.00;11.85;;;;;;;18.05;100.00;94712.13;5083680;28;20951;-72
2021/07/02 05:18:58;;;;;;;13.43;11.25;;;;;;;18.02;100.00;94701.34;5084403;28;20051;-71
2021/07/02 05:21:25;;;;;;;15.52;11.50;;;;;;;18.14;99.73;94710.44;5085030;28;20055;-71
2021/07/02 05:23:52;;;;;;;15.95;12.70;;;;;;;18.15;100.00;94722.56;5085453;28;20058;-71
2021/07/02 05:26:19;;;;;;;17.40;13.48;;;;;;;18.27;100.00;94726.63;5085937;28;20055;-71
2021/07/02 05:28:46;;;;;;;14.30;12.73;;;;;;;18.38;100.00;94724.66;5084277;28;20089;-71
2021/07/02 05:31:14;;;;;;;16.45;12.43;;;;;;;18.53;100.00;94727.13;5085321;28;20062;-71
2021/07/02 05:33:42;;;;;;;17.67;13.90;;;;;;;18.66;98.64;94725.63;5085519;28;20040;-72
2021/07/02 05:36:10;;;;;;;14.50;11.52;;;;;;;18.70;97.27;94727.41;5085739;28;20042;-72
2021/07/02 05:38:36;;;;;;;15.13;12.80;;;;;;;18.77;96.95;94727.06;5085206;28;20040;-71
2021/07/02 05:41:03;;;;;;;15.38;11.85;;;;;;;18.63;96.14;94721.69;5085613;28;20040;-71
2021/07/02 05:43:30;;;;;;;16.23;11.13;;;;;;;18.68;95.98;94720.84;5085744;28;20048;-71
2021/07/02 05:45:57;;;;;;;14.18;11.93;;;;;;;18.67;95.89;94721.91;5086795;28;20048;-71
2021/07/02 05:48:24;;;;;;;12.60;11.18;;;;;;;18.82;97.12;94721.75;5084396;28;20525;-71
2021/07/02 05:50:51;;;;;;;10.88;9.88;;;;;;;18.88;94.57;94725.88;5085550;28;20051;-71
2021/07/02 05:53:18;;;;;;;11.52;10.43;;;;;;;18.99;94.74;94723.88;5067250;28;20062;-71
2021/07/02 05:55:44;;;;;;;11.90;8.52;;;;;;;19.12;91.74;94722.38;5085284;28;20390;-71
2021/07/02 05:58:13;;;;;;;11.88;7.95;;;;;;;19.06;90.07;94723.53;5085085;28;20055;-71
2021/07/02 06:00:41;;;;;;;11.05;7.50;;;;;;;19.19;87.78;94717.50;5085083;28;20040;-71
2021/07/02 06:03:08;;;;;;;11.38;7.55;;;;;;;19.39;87.27;94728.81;5087119;28;20044;-71
2021/07/02 06:05:35;;;;;;;7.85;7.10;;;;;;;19.36;85.92;94732.06;5083880;28;20394;-71
2021/07/02 06:08:02;;;;;;;10.60;6.78;;;;;;;19.40;85.60;94733.03;5084725;28;20033;-71
2021/07/02 06:10:30;;;;;;;9.27;6.85;;;;;;;19.54;85.18;94733.88;5084773;28;20043;-71
2021/07/02 06:12:57;;;;;;;8.95;7.20;;;;;;;19.68;85.32;94733.91;5086720;28;20044;-71
2021/07/02 06:15:25;;;;;;;12.57;8.45;;;;;;;19.68;85.55;94724.13;5087204;28;20059;-71
2021/07/02 06:17:52;;;;;;;12.85;9.82;;;;;;;19.90;87.38;94730.66;5088247;28;20040;-72
2021/07/02 06:20:22;;;;;;;12.40;10.75;;;;;;;19.97;86.17;94733.69;5088436;28;20591;-71
2021/07/02 06:22:49;;;;;;;12.68;10.80;;;;;;;19.96;85.19;94734.75;5090303;28;20040;-71
2021/07/02 06:25:16;;;;;;;12.82;10.48;;;;;;;19.80;84.78;94726.31;5088410;28;20054;-71
2021/07/02 06:27:43;;;;;;;15.55;10.88;;;;;;;19.80;86.23;94722.88;5090114;28;20043;-71
2021/07/02 06:30:17;;;;;;;11.30;10.00;;;;;;;19.97;84.94;94736.34;5088750;28;20805;-71
2021/07/02 06:32:44;;;;;;;10.85;9.85;;;;;;;19.94;85.41;94726.34;5087178;28;20040;-70
2021/07/02 06:35:12;;;;;;;12.80;9.90;;;;;;;20.13;84.68;94733.38;5087821;28;20059;-71
2021/07/02 06:37:39;;;;;;;15.48;11.57;;;;;;;20.18;83.72;94725.38;5087895;28;20064;-71
2021/07/02 06:40:08;;;;;;;18.38;11.38;;;;;;;20.22;83.59;94747.50;5086635;28;20036;-71
2021/07/02 06:42:35;;;;;;;14.75;11.77;;;;;;;20.19;83.52;94748.09;5086682;28;20429;-72
2021/07/02 06:45:03;;;;;;;14.35;12.48;;;;;;;20.18;83.37;94747.28;5086682;28;20036;-72
2021/07/02 06:47:30;;;;;;;11.88;10.73;;;;;;;20.27;82.35;94734.19;5087482;28;20036;-71
2021/07/02 06:49:57;;;;;;;14.15;11.55;;;;;;;20.31;83.44;94740.47;5089210;28;20036;-71
2021/07/02 06:52:23;;;;;;;16.25;10.70;;;;;;;20.31;83.17;94735.19;5088288;28;20047;-71
2021/07/02 06:54:50;;;;;;;12.63;11.32;;;;;;;20.43;82.79;94747.88;5088052;28;20518;-71
2021/07/02 06:57:17;;;;;;;14.73;12.18;;;;;;;20.39;82.85;94731.81;5088213;28;20039;-71
2021/07/02 06:59:44;;;;;;;14.95;11.05;;;;;;;20.53;81.51;94744.28;5089371;28;20036;-71
2021/07/02 07:02:12;;;;;;;17.92;10.65;;;;;;;20.49;81.44;94743.28;5069929;28;20051;-71
2021/07/02 07:04:39;;;;;;;15.25;10.95;;;;;;;20.58;81.57;94739.66;5086248;28;20062;-72
2021/07/02 07:07:08;;;;;;;11.73;10.52;;;;;;;20.79;81.00;94741.91;5086508;28;20118;-72
2021/07/02 07:09:35;;;;;;;18.38;10.30;;;;;;;20.84;79.83;94746.31;5087051;28;20040;-72
2021/07/02 07:12:03;;;;;;;13.02;10.10;;;;;;;20.87;78.82;94740.41;5087694;28;20048;-72
2021/07/02 07:14:31;;;;;;;14.07;11.90;;;;;;;20.99;79.62;94744.13;5087521;28;20433;-71
2021/07/02 07:16:58;;;;;;;13.10;11.68;;;;;;;21.12;78.86;94742.50;5086931;28;20416;-72
2021/07/02 07:19:28;;;;;;;12.10;10.90;;;;;;;21.15;78.00;94744.53;5070879;28;20058;-72
2021/07/02 07:21:56;;;;;;;11.73;10.50;;;;;;;21.19;78.11;94742.88;5087688;28;20054;-72
2021/07/02 07:24:23;;;;;;;13.90;10.63;;;;;;;21.33;76.84;94752.63;5087125;28;20055;-72
2021/07/02 07:26:57;;;;;;;11.13;9.95;;;;;;;21.16;76.11;94758.59;5086552;28;20109;-72
2021/07/02 07:29:25;;;;;;;11.57;9.35;;;;;;;21.24;76.94;94749.13;5086285;28;20044;-72
2021/07/02 07:31:53;;;;;;;10.00;9.00;;;;;;;21.39;76.70;94746.09;5102836;28;20044;-72
2021/07/02 07:34:33;;;;;;;12.70;9.75;;;;;;;21.52;75.57;94750.59;5087116;28;20040;-72
2021/07/02 07:37:05;;;;;;;12.07;10.00;;;;;;;21.77;74.63;94748.44;5087038;28;20817;-72
2021/07/02 07:39:32;;;;;;;12.20;10.43;;;;;;;21.64;73.40;94746.63;5085826;28;20047;-72
2021/07/02 07:41:58;;;;;;;11.10;9.55;;;;;;;21.64;73.46;94751.91;5086666;28;20489;-72
2021/07/02 07:44:26;;;;;;;10.07;9.07;;;;;;;21.69;73.05;94744.63;5084927;28;20130;-71
2021/07/02 07:46:55;;;;;;;16.60;8.93;;;;;;;21.94;73.65;94751.16;5086632;28;20119;-71
2021/07/02 07:49:23;;;;;;;9.27;8.38;;;;;;;21.96;71.96;94754.28;5086533;28;20069;-71
2021/07/02 07:51:57;;;;;;;11.40;9.48;;;;;;;22.07;73.29;94743.41;5086315;28;20520;-72
2021/07/02 07:54:24;;;;;;;9.48;8.43;;;;;;;22.17;71.32;94748.47;5086894;28;20052;-71
2021/07/02 07:56:52;;;;;;;11.52;10.18;;;;;;;22.24;70.67;94748.78;5086670;28;20058;-71
2021/07/02 07:59:21;;;;;;;13.18;10.82;;;;;;;22.17;71.19;94755.63;5085869;28;20109;-71
2021/07/02 08:01:48;;;;;;;13.30;9.77;;;;;;;22.39;71.73;94741.53;5084579;28;20047;-71
2021/07/02 08:04:15;;;;;;;10.75;8.52;;;;;;;22.46;70.21;94744.53;5084798;28;20056;-71
2021/07/02 08:06:43;;;;;;;10.70;9.70;;;;;;;22.50;69.79;94756.09;5070662;28;20040;-71
2021/07/02 08:09:11;;;;;;;10.43;9.32;;;;;;;22.68;68.61;94747.06;5086427;28;20047;-71
2021/07/02 08:11:40;;;;;;;10.35;8.60;;;;;;;22.74;67.98;94752.22;5085554;28;20054;-71
2021/07/02 08:14:08;;;;;;;15.18;9.48;;;;;;;22.87;69.26;94748.69;5085418;28;20047;-72
2021/07/02 08:16:36;;;;;;;12.40;8.65;;;;;;;22.95;66.78;94755.06;5084714;28;20048;-72
2021/07/02 08:19:04;;;;;;;9.88;8.93;;;;;;;23.05;67.17;94750.28;5084420;28;20051;-71
2021/07/02 08:21:32;;;;;;;12.27;9.98;;;;;;;22.90;65.42;94754.16;5086172;28;20050;-71
2021/07/02 08:23:59;;;;;;;11.75;9.40;;;;;;;22.65;67.63;94753.00;5086298;28;20080;-71
2021/07/02 08:26:26;;;;;;;13.15;9.20;;;;;;;22.68;67.05;94741.75;5085164;28;20052;-71
2021/07/02 08:31:39;;;;;;;10.27;8.38;;;;;;;23.14;65.80;94750.28;5085024;28;20130;-71
2021/07/02 08:34:06;;;;;;;9.85;8.93;;;;;;;23.17;65.69;94746.22;5086388;28;20047;-72
2021/07/02 08:36:33;;;;;;;14.32;8.25;;;;;;;23.26;64.08;94734.50;5085923;28;20509;-71
2021/07/02 08:39:00;;;;;;;10.88;8.95;;;;;;;23.43;65.14;94749.63;5085849;28;20402;-71
2021/07/02 08:41:28;;;;;;;9.93;8.60;;;;;;;23.58;64.98;94751.03;5085240;28;20044;-71
2021/07/02 08:43:54;;;;;;;9.10;7.28;;;;;;;23.65;63.56;94756.63;5085688;28;20119;-71
2021/07/02 08:46:22;;;;;;;9.32;8.32;;;;;;;23.53;63.25;94753.06;5085041;28;20036;-72
2021/07/02 08:48:53;;;;;;;12.75;8.82;;;;;;;23.64;63.33;94748.97;5086060;28;20471;-71
2021/07/02 08:51:23;;;;;;;10.07;8.00;;;;;;;23.62;61.96;94745.84;5083957;28;20547;-71
2021/07/02 08:53:50;;;;;;;14.77;9.27;;;;;;;23.88;62.74;94747.69;5084414;28;20498;-71
2021/07/02 08:56:19;;;;;;;11.98;9.23;;;;;;;23.88;61.62;94735.19;5085494;28;20044;-72
2021/07/02 08:58:46;;;;;;;9.48;7.90;;;;;;;23.93;60.28;94750.19;5085386;28;20511;-72
2021/07/02 09:01:36;;;;;;;7.88;6.90;;;;;;;24.19;60.92;94740.25;5085208;28;20036;-72
2021/07/02 09:04:29;;;;;;;12.27;7.60;;;;;;;24.42;60.06;94745.31;5084598;28;20040;-72
2021/07/02 09:07:13;;;;;;;9.02;7.95;;;;;;;24.29;59.75;94735.66;5085625;28;20040;-72
2021/07/02 09:09:55;;;;;;;8.90;7.47;;;;;;;24.46;60.42;94732.16;5086110;28;20545;-72
2021/07/02 09:12:37;;;;;;;9.10;7.15;;;;;;;24.59;58.66;94726.59;5083940;28;20052;-72
2021/07/02 09:15:13;;;;;;;13.82;8.00;;;;;;;24.89;58.29;94726.59;5084720;28;20071;-74
2021/07/02 09:17:49;;;;;;;7.93;6.32;;;;;;;24.84;57.97;94734.75;5083266;28;20036;-73
2021/07/02 09:20:29;;;;;;;11.50;5.80;;;;;;;24.80;57.36;94728.53;5066057;28;20055;-73
2021/07/02 09:23:01;;;;;;;8.43;5.70;;;;;;;25.06;54.49;94736.31;5084405;28;20090;-74
2021/07/02 09:25:31;;;;;;;8.65;5.80;;;;;;;24.99;55.59;94731.53;5084751;28;20112;-74
2021/07/02 09:27:58;;;;;;;7.90;5.97;;;;;;;25.10;53.55;94731.13;5085419;28;20054;-75
2021/07/02 09:30:30;;;;;;;5.90;5.30;;;;;;;24.83;53.22;94725.22;5085247;28;20051;-74
2021/07/02 09:33:03;;;;;;;7.47;5.40;;;;;;;24.99;54.22;94731.53;5083920;28;20047;-72
2021/07/02 09:35:45;;;;;;;6.35;5.25;;;;;;;25.35;54.02;94732.84;5085286;28;20047;-72
2021/07/02 09:38:15;;;;;;;6.97;5.07;;;;;;;25.37;52.09;94729.81;5079831;28;20051;-72
2021/07/02 09:40:42;;;;;;;7.80;4.80;;;;;;;25.65;51.61;94730.03;5081845;28;20051;-72
2021/07/02 09:43:10;;;;;;;6.68;4.65;;;;;;;25.70;49.81;94719.16;5085774;28;20428;-72
2021/07/02 09:45:52;;;;;;;10.38;4.30;;;;;;;25.76;51.42;94731.19;5083906;28;20112;-72
2021/07/02 09:48:22;;;;;;;5.90;4.07;;;;;;;25.96;49.72;94720.81;5086577;28;20028;-72
2021/07/02 09:51:05;;;;;;;13.25;3.45;;;;;;;25.88;49.96;94727.00;5086311;28;20050;-72
2021/07/02 09:53:35;;;;;;;6.68;3.97;;;;;;;25.74;49.24;94722.72;5085515;28;20047;-72
2021/07/02 09:56:04;;;;;;;6.97;3.97;;;;;;;25.88;50.17;94716.31;5083887;28;20071;-73
2021/07/02 09:58:36;;;;;;;8.25;3.38;;;;;;;25.95;49.74;94721.94;5083659;28;20421;-72
2021/07/02 10:01:04;;;;;;;6.30;3.60;;;;;;;26.05;49.02;94716.13;5069041;28;20039;-73
2021/07/02 10:03:44;;;;;;;11.43;4.40;;;;;;;26.03;48.69;94723.69;5091888;28;20064;-73
2021/07/02 10:06:24;;;;;;;5.05;3.60;;;;;;;26.12;48.10;94721.69;5090299;28;20051;-73
2021/07/02 10:08:52;;;;;;;6.75;2.88;;;;;;;26.40;48.31;94725.59;5089287;28;20036;-73
2021/07/02 10:11:19;;;;;;;7.32;3.28;;;;;;;26.34;47.24;94711.69;5087117;28;20051;-73
2021/07/02 10:13:51;;;;;;;5.22;3.08;;;;;;;26.47;47.87;94715.94;5073512;28;20044;-72
2021/07/02 10:16:18;;;;;;;5.20;2.70;;;;;;;26.47;46.98;94710.59;5088229;28;20078;-73
2021/07/02 10:18:56;;;;;;;6.47;2.63;;;;;;;26.74;47.10;94703.03;5087017;28;20044;-73
2021/07/02 10:21:24;;;;;;;4.90;2.97;;;;;;;26.92;44.42;94708.09;5088574;28;20040;-72
2021/07/02 10:23:54;;;;;;;11.98;2.83;;;;;;;26.91;44.53;94698.53;5088533;28;20040;-73
2021/07/02 10:26:25;;;;;;;4.80;3.00;;;;;;;26.94;45.73;94712.00;5088594;28;20048;-73
2021/07/02 10:28:52;;;;;;;4.72;3.22;;;;;;;26.79;45.29;94700.09;5076237;27;20124;-73
2021/07/02 10:31:19;;;;;;;3.17;2.80;;;;;;;27.17;45.00;94714.94;5083429;28;20078;-73
2021/07/02 10:33:49;;;;;;;5.15;2.92;;;;;;;27.26;44.25;94712.09;5090688;28;20150;-73
2021/07/02 10:36:17;;;;;;;3.55;3.22;;;;;;;27.47;42.70;94706.59;5085420;28;20123;-73
2021/07/02 10:38:47;;;;;;;3.90;2.50;;;;;;;27.48;45.42;94702.81;5087579;28;20052;-73
2021/07/02 10:41:19;;;;;;;4.20;3.38;;;;;;;27.44;43.79;94702.72;5086173;28;20043;-73
2021/07/02 10:44:11;;;;;;;9.80;2.90;;;;;;;27.45;44.22;94693.56;5083247;28;20050;-73
2021/07/02 10:46:40;;;;;;;6.50;2.92;;;;;;;27.68;44.15;94700.25;5086741;28;20428;-73
2021/07/02 10:49:11;;;;;;;6.05;3.30;;;;;;;27.50;44.70;94695.22;5087565;28;20071;-73
2021/07/02 10:51:44;;;;;;;8.05;3.42;;;;;;;27.50;43.67;94679.19;5088208;28;20043;-73
2021/07/02 10:54:18;;;;;;;6.95;3.83;;;;;;;27.78;44.95;94691.72;5091982;28;20505;-74
2021/07/02 10:56:56;;;;;;;5.38;3.65;;;;;;;27.65;45.11;94689.09;5088169;28;20379;-74
2021/07/02 10:59:35;;;;;;;5.82;3.95;;;;;;;27.48;45.27;94696.66;5088236;28;20155;-74
2021/07/02 11:02:05;;;;;;;8.75;4.22;;;;;;;27.56;45.89;94675.13;5087663;28;20082;-73
2021/07/02 11:04:39;;;;;;;6.15;4.18;;;;;;;27.58;45.27;94691.59;5085347;28;20066;-73
2021/07/02 11:07:12;;;;;;;6.72;3.95;;;;;;;27.76;45.63;94691.28;5072048;28;20047;-73
2021/07/02 11:09:51;;;;;;;6.57;4.22;;;;;;;27.79;45.10;94690.59;5091745;28;20505;-73
2021/07/02 11:12:23;;;;;;;4.00;3.22;;;;;;;28.10;45.14;94689.09;5087709;28;20961;-73
2021/07/02 11:14:53;;;;;;;5.25;3.63;;;;;;;28.30;44.33;94688.03;5088777;28;20063;-74
2021/07/02 11:17:24;;;;;;;3.70;3.40;;;;;;;28.74;43.47;94690.56;5088480;28;20094;-72
2021/07/02 11:22:36;;;;;;;6.53;4.03;;;;;;;28.27;43.13;94679.91;5089220;28;20048;-72
2021/07/02 11:25:14;;;;;;;5.00;3.92;;;;;;;28.09;43.88;94682.16;5085809;28;20101;-71
2021/07/02 11:27:44;;;;;;;7.60;3.47;;;;;;;28.57;43.25;94675.63;5085982;28;20116;-71
2021/07/02 11:30:20;;;;;;;5.20;3.42;;;;;;;29.25;43.04;94680.88;5080902;28;20040;-72
2021/07/02 11:32:49;;;;;;;6.40;3.20;;;;;;;29.99;41.47;94682.59;5071007;28;20589;-71
2021/07/02 11:35:30;;;;;;;3.60;2.33;;;;;;;30.33;39.92;94677.38;5084153;28;20347;-72